Time;durP1;ratioP1;P1;durP2;ratioP2;P2;SDS_P1;SDS_P2;PMS_P1;PMS_P2;Temp;Humidity;BMP_temperature;BMP_pressure;BME280_temperature;BME280_humidity;BME280_pressure;Samples;Min_cycle;Max_cycle;Signal;HPM_P1;HPM_P2
2022/01/18 00:01:17;;;;;;;;;;;;;;;1.97;52.43;100493.38;4447909;32;33878;-91
2022/01/18 00:03:46;;;;;;;;;;;;;;;2.12;52.60;100496.44;4459389;32;33857;-91
2022/01/18 00:06:15;;;;;;;;;;;;;;;1.98;52.57;100507.87;4460834;32;31335;-91
2022/01/18 00:08:43;;;;;;;;;;;;;;;2.05;52.39;100494.47;4458265;32;34061;-92
2022/01/18 00:11:12;;;;;;;;;;;;;;;2.07;51.91;100514.19;4453951;32;33762;-91
2022/01/18 00:13:43;;;;;;;;;;;;;;;1.97;52.64;100526.62;4447816;32;34753;-91
2022/01/18 00:16:25;;;;;;;;;;;;;;;1.90;52.72;100538.34;4452493;32;31978;-90
2022/01/18 00:18:56;;;;;;;;;;;;;;;1.99;52.49;100528.44;4449327;32;33413;-91
2022/01/18 00:21:31;;;;;;;;;;;;;;;2.28;52.04;100529.41;4459761;32;34829;-91
2022/01/18 00:24:00;;;;;;;;;;;;;;;2.37;51.64;100522.84;4458833;32;34115;-91
2022/01/18 00:26:32;;;;;;;;;;;;;;;2.25;51.96;100526.75;4452928;32;32882;-91
2022/01/18 00:29:06;;;;;;;;;;;;;;;2.14;51.93;100521.25;4460273;32;32676;-93
2022/01/18 00:31:49;;;;;;;;;;;;;;;1.89;52.21;100527.22;4449656;32;33286;-91
2022/01/18 00:34:24;;;;;;;;;;;;;;;2.10;52.07;100547.59;4456771;32;33136;-91
2022/01/18 00:39:36;;;;;;;;;;;;;;;2.21;51.35;100554.75;4458134;32;34105;-91
2022/01/18 00:42:05;;;;;;;;;;;;;;;2.13;51.52;100559.63;4447710;32;33932;-91
2022/01/18 00:44:33;;;;;;;;;;;;;;;2.10;51.83;100570.62;4457993;32;34762;-91
2022/01/18 00:47:02;;;;;;;;;;;;;;;2.25;51.33;100561.75;4453711;32;33059;-91
2022/01/18 00:49:39;;;;;;;;;;;;;;;2.04;52.00;100570.41;4453746;32;33741;-91
2022/01/18 00:52:08;;;;;;;;;;;;;;;2.10;51.87;100586.00;4462101;32;33592;-91
2022/01/18 00:54:43;;;;;;;;;;;;;;;2.09;52.36;100584.22;4457139;32;31984;-91
2022/01/18 00:57:12;;;;;;;;;;;;;;;2.22;52.15;100587.22;4450805;32;33983;-91
2022/01/18 00:59:41;;;;;;;;;;;;;;;2.08;52.83;100599.56;4460436;32;33302;-91
2022/01/18 01:02:16;;;;;;;;;;;;;;;2.11;52.76;100597.09;4455382;32;34860;-91
2022/01/18 01:04:48;;;;;;;;;;;;;;;2.07;53.03;100601.22;4453892;32;34091;-91
2022/01/18 01:07:18;;;;;;;;;;;;;;;2.12;53.26;100596.25;4456272;32;33832;-91
2022/01/18 01:09:46;;;;;;;;;;;;;;;1.99;53.70;100610.31;4457322;32;33827;-91
2022/01/18 01:12:17;;;;;;;;;;;;;;;1.94;54.07;100616.09;4462354;32;32205;-91
2022/01/18 01:14:48;;;;;;;;;;;;;;;2.05;54.19;100625.88;4451584;32;33240;-91
2022/01/18 01:17:29;;;;;;;;;;;;;;;1.94;54.69;100634.00;4450209;32;32007;-91
2022/01/18 01:42:59;;;;;;;;;;;;;;;1.40;57.30;100630.28;4401406;32;33972;-88
2022/01/18 01:45:28;;;;;;;;;;;;;;;1.42;57.43;100641.44;4403654;32;33853;-89
2022/01/18 01:47:59;;;;;;;;;;;;;;;1.53;57.21;100654.66;4415627;32;33760;-87
2022/01/18 01:50:39;;;;;;;;;;;;;;;1.65;56.96;100639.78;4419231;32;33360;-89
2022/01/18 01:53:09;;;;;;;;;;;;;;;1.59;57.06;100651.44;4400924;32;34730;-88
2022/01/18 01:55:38;;;;;;;;;;;;;;;1.70;56.69;100645.94;4406050;32;35128;-88
2022/01/18 01:58:06;;;;;;;;;;;;;;;1.58;57.21;100648.03;4414077;32;34027;-87
2022/01/18 02:00:41;;;;;;;;;;;;;;;1.51;57.37;100646.03;4416241;32;33224;-88
2022/01/18 02:03:09;;;;;;;;;;;;;;;1.43;57.34;100668.75;4406646;32;34005;-88
2022/01/18 02:05:39;;;;;;;;;;;;;;;1.49;57.30;100660.44;4412346;32;34282;-89
2022/01/18 02:08:09;;;;;;;;;;;;;;;1.52;57.16;100665.66;4403799;32;33907;-88
2022/01/18 02:10:39;;;;;;;;;;;;;;;1.54;56.90;100670.84;4406215;32;33313;-89
2022/01/18 02:13:08;;;;;;;;;;;;;;;1.48;57.13;100671.50;4407964;32;34657;-89
2022/01/18 02:15:39;;;;;;;;;;;;;;;1.55;56.96;100670.94;4405309;32;35015;-88
2022/01/18 02:23:55;;;;;;;;;;;;;;;1.30;57.74;100669.06;4409029;32;33154;-89
2022/01/18 02:26:24;;;;;;;;;;;;;;;1.38;57.60;100667.72;4416919;32;35033;-88
2022/01/18 02:28:52;;;;;;;;;;;;;;;1.49;57.19;100663.87;4417734;32;33542;-89
2022/01/18 02:31:21;;;;;;;;;;;;;;;1.42;57.28;100671.25;4410325;32;31657;-88
2022/01/18 02:33:49;;;;;;;;;;;;;;;1.41;57.43;100674.63;4428002;32;34135;-88
2022/01/18 02:36:19;;;;;;;;;;;;;;;1.28;57.63;100663.91;4421566;32;33787;-88
2022/01/18 02:38:47;;;;;;;;;;;;;;;1.41;57.52;100678.03;4420439;32;34662;-89
2022/01/18 02:41:24;;;;;;;;;;;;;;;1.57;56.89;100661.63;4422135;32;33887;-90
2022/01/18 02:43:55;;;;;;;;;;;;;;;1.60;57.08;100674.53;4416317;32;34082;-89
2022/01/18 02:46:24;;;;;;;;;;;;;;;1.39;57.31;100660.91;4431470;32;34551;-88
2022/01/18 02:48:53;;;;;;;;;;;;;;;1.34;57.80;100675.19;4429160;32;34322;-88
2022/01/18 02:51:23;;;;;;;;;;;;;;;1.39;57.64;100658.34;4425797;32;33317;-89
2022/01/18 02:53:52;;;;;;;;;;;;;;;1.32;57.96;100676.81;4415675;32;34203;-88
2022/01/18 02:56:20;;;;;;;;;;;;;;;1.38;57.76;100672.81;4448471;32;34145;-88
2022/01/18 02:58:49;;;;;;;;;;;;;;;1.28;58.00;100675.81;4459621;32;32731;-89
2022/01/18 03:04:06;;;;;;;;;;;;;;;1.36;57.65;100688.91;4448535;32;34047;-88
2022/01/18 03:06:35;;;;;;;;;;;;;;;1.17;58.43;100692.41;4449419;32;34994;-88
2022/01/18 03:09:04;;;;;;;;;;;;;;;1.22;58.18;100694.31;4458142;32;34418;-87
2022/01/18 03:11:32;;;;;;;;;;;;;;;1.19;58.29;100707.00;4459269;32;33051;-88
2022/01/18 03:14:01;;;;;;;;;;;;;;;1.10;58.39;100711.72;4485105;32;34076;-89
2022/01/18 03:16:29;;;;;;;;;;;;;;;1.07;58.91;100729.50;4449147;32;33866;-88
2022/01/18 03:18:58;;;;;;;;;;;;;;;1.34;57.87;100716.09;4450096;32;33588;-88
2022/01/18 03:21:26;;;;;;;;;;;;;;;1.33;57.90;100735.69;4448692;32;33354;-89
2022/01/18 03:24:11;;;;;;;;;;;;;;;1.28;57.91;100732.94;4460869;32;34073;-88
2022/01/18 03:29:20;;;;;;;;;;;;;;;1.32;57.93;100744.16;4455459;32;36971;-88
2022/01/18 03:31:49;;;;;;;;;;;;;;;1.50;57.43;100754.28;4456618;32;34098;-89
2022/01/18 03:34:18;;;;;;;;;;;;;;;1.33;57.87;100757.78;4457888;32;34481;-88
2022/01/18 03:36:47;;;;;;;;;;;;;;;1.52;57.35;100767.97;4452955;32;34744;-88
2022/01/18 03:39:19;;;;;;;;;;;;;;;1.42;57.55;100763.28;4455517;32;33844;-88
2022/01/18 03:41:53;;;;;;;;;;;;;;;1.48;57.39;100773.78;4467588;32;33755;-89
2022/01/18 03:44:23;;;;;;;;;;;;;;;1.56;57.32;100781.75;4448004;32;34516;-89
2022/01/18 03:46:53;;;;;;;;;;;;;;;1.56;57.38;100780.06;4450660;32;34115;-88
2022/01/18 03:49:23;;;;;;;;;;;;;;;1.48;57.46;100779.75;4455819;32;34366;-88
2022/01/18 03:51:52;;;;;;;;;;;;;;;1.49;57.34;100785.75;4457272;32;34412;-88
2022/01/18 03:54:23;;;;;;;;;;;;;;;1.40;57.56;100790.47;4465292;32;34737;-88
2022/01/18 03:56:52;;;;;;;;;;;;;;;1.49;57.52;100793.41;4454147;32;35610;-88
2022/01/18 03:59:21;;;;;;;;;;;;;;;1.65;56.91;100793.25;4448753;32;34379;-88
2022/01/18 04:01:50;;;;;;;;;;;;;;;1.65;57.19;100793.25;4447448;32;32933;-88
2022/01/18 04:04:19;;;;;;;;;;;;;;;1.73;56.63;100785.87;4447494;32;33693;-88
2022/01/18 04:06:47;;;;;;;;;;;;;;;1.61;56.93;100799.03;4459496;32;34531;-88
2022/01/18 04:09:19;;;;;;;;;;;;;;;1.69;56.96;100807.91;4446778;32;34528;-88
2022/01/18 04:11:49;;;;;;;;;;;;;;;1.60;57.17;100811.78;4447504;32;32560;-88
2022/01/18 04:14:17;;;;;;;;;;;;;;;1.60;57.31;100815.19;4453167;32;34932;-88
2022/01/18 04:17:00;;;;;;;;;;;;;;;1.41;57.57;100807.59;4448494;32;35525;-88
2022/01/18 04:25:49;;;;;;;;;;;;;;;1.48;57.49;100807.88;4462795;32;34203;-89
2022/01/18 04:28:08;;;;;;;;;;;;;;;1.51;57.01;100825.03;4465379;32;34914;-88
2022/01/18 04:30:37;;;;;;;;;;;;;;;1.84;56.20;100830.69;4459410;32;33444;-88
2022/01/18 04:33:06;;;;;;;;;;;;;;;1.51;56.78;100825.03;4462667;32;32968;-89
2022/01/18 04:35:35;;;;;;;;;;;;;;;1.65;56.78;100826.50;4450904;32;35420;-88
2022/01/18 04:38:03;;;;;;;;;;;;;;;1.64;56.56;100831.53;4461404;32;34650;-88
2022/01/18 04:40:33;;;;;;;;;;;;;;;1.74;56.29;100836.25;4455424;32;34563;-88
2022/01/18 04:43:13;;;;;;;;;;;;;;;1.28;57.31;100835.19;4453822;32;31597;-88
2022/01/18 04:48:30;;;;;;;;;;;;;;;1.62;56.89;100846.84;4448820;32;34610;-89
2022/01/18 04:50:59;;;;;;;;;;;;;;;1.47;57.12;100848.72;4449939;32;33574;-88
2022/01/18 04:53:30;;;;;;;;;;;;;;;1.65;56.65;100853.75;4447635;32;33971;-88
2022/01/18 04:56:03;;;;;;;;;;;;;;;1.57;57.20;100855.09;4452741;32;34094;-88
2022/01/18 04:58:33;;;;;;;;;;;;;;;1.67;56.80;100853.00;4467640;32;35916;-89
2022/01/18 05:01:03;;;;;;;;;;;;;;;1.44;57.51;100856.28;4453090;32;34138;-88
2022/01/18 05:03:32;;;;;;;;;;;;;;;1.73;56.82;100852.38;4456207;32;33446;-88
2022/01/18 05:06:08;;;;;;;;;;;;;;;1.47;57.40;100862.41;4452034;32;35345;-88
2022/01/18 05:08:40;;;;;;;;;;;;;;;1.39;57.86;100862.88;4456678;32;34665;-88
2022/01/18 05:11:10;;;;;;;;;;;;;;;1.17;58.35;100872.19;4447367;32;35400;-89
2022/01/18 05:13:49;;;;;;;;;;;;;;;1.36;58.30;100871.31;4456130;32;33456;-89
2022/01/18 05:16:43;;;;;;;;;;;;;;;1.21;58.46;100865.53;4452417;32;35490;-88
2022/01/18 05:19:20;;;;;;;;;;;;;;;1.42;57.94;100870.69;4457308;32;35531;-89
2022/01/18 05:24:35;;;;;;;;;;;;;;;1.05;59.14;100854.63;4467145;32;34035;-88
2022/01/18 05:27:04;;;;;;;;;;;;;;;0.94;59.85;100854.97;4460683;32;34389;-87
2022/01/18 05:29:41;;;;;;;;;;;;;;;0.93;59.87;100858.34;4451939;32;32293;-88
2022/01/18 05:32:10;;;;;;;;;;;;;;;0.76;60.29;100862.69;4449526;32;34233;-88
2022/01/18 05:34:39;;;;;;;;;;;;;;;0.90;60.04;100873.53;4456324;32;33751;-88
2022/01/18 05:37:07;;;;;;;;;;;;;;;0.82;60.33;100871.50;4454129;32;34786;-88
2022/01/18 05:39:36;;;;;;;;;;;;;;;0.93;60.20;100883.88;4449779;32;35058;-87
2022/01/18 05:42:08;;;;;;;;;;;;;;;0.81;60.48;100879.97;4452916;32;34704;-88
2022/01/18 05:44:47;;;;;;;;;;;;;;;0.69;61.08;100883.66;4456488;32;31778;-89
2022/01/18 05:47:16;;;;;;;;;;;;;;;0.89;60.53;100887.09;4449572;32;34049;-88
2022/01/18 05:49:44;;;;;;;;;;;;;;;0.74;61.22;100889.84;4461788;32;35054;-88
2022/01/18 05:52:12;;;;;;;;;;;;;;;0.85;61.09;100892.06;4456264;32;33434;-89
2022/01/18 05:54:41;;;;;;;;;;;;;;;0.85;61.09;100897.19;4474484;32;34488;-90
2022/01/18 05:57:10;;;;;;;;;;;;;;;0.61;61.95;100891.81;4463260;32;34091;-87
2022/01/18 05:59:44;;;;;;;;;;;;;;;0.63;62.02;100894.47;4447270;32;34216;-87
2022/01/18 06:02:18;;;;;;;;;;;;;;;0.75;61.86;100899.22;4455225;32;34090;-88
2022/01/18 06:07:33;;;;;;;;;;;;;;;0.78;61.74;100905.38;4458888;32;33678;-88
2022/01/18 06:10:02;;;;;;;;;;;;;;;0.83;61.41;100913.25;4468989;32;33763;-88
2022/01/18 06:12:32;;;;;;;;;;;;;;;0.76;61.76;100924.84;4450326;32;34703;-87
2022/01/18 06:15:00;;;;;;;;;;;;;;;0.78;61.74;100930.06;4449137;32;33426;-87
2022/01/18 06:17:31;;;;;;;;;;;;;;;0.78;61.59;100924.94;4457375;32;33789;-87
2022/01/18 06:19:59;;;;;;;;;;;;;;;1.19;60.43;100937.03;4449663;32;35071;-88
2022/01/18 06:22:28;;;;;;;;;;;;;;;1.23;60.19;100938.94;4462448;32;33739;-88
2022/01/18 06:24:56;;;;;;;;;;;;;;;1.27;60.11;100937.38;4460490;32;34459;-87
2022/01/18 06:27:25;;;;;;;;;;;;;;;1.32;59.95;100935.00;4450623;32;34486;-87
2022/01/18 06:29:55;;;;;;;;;;;;;;;1.41;59.78;100936.28;4447225;32;35329;-88
2022/01/18 06:32:24;;;;;;;;;;;;;;;1.60;59.25;100931.97;4455542;32;34991;-88
2022/01/18 06:34:54;;;;;;;;;;;;;;;1.48;59.60;100934.88;4453128;32;32960;-88
2022/01/18 06:37:23;;;;;;;;;;;;;;;1.23;60.33;100938.94;4455806;32;34610;-88
2022/01/18 06:39:53;;;;;;;;;;;;;;;1.24;60.68;100942.34;4462575;32;34321;-87
2022/01/18 06:42:22;;;;;;;;;;;;;;;1.46;59.75;100951.84;4454484;32;33047;-88
2022/01/18 06:44:50;;;;;;;;;;;;;;;1.22;60.93;100957.59;4452493;32;32934;-87
2022/01/18 06:47:19;;;;;;;;;;;;;;;1.55;60.18;100959.91;4453088;32;34895;-87
2022/01/18 06:49:48;;;;;;;;;;;;;;;1.51;59.89;100967.38;4455274;32;35701;-87
2022/01/18 06:52:18;;;;;;;;;;;;;;;1.77;59.35;100965.97;4452805;32;34569;-87
2022/01/18 06:54:46;;;;;;;;;;;;;;;1.75;59.25;100968.44;4448134;32;33872;-86
2022/01/18 06:57:15;;;;;;;;;;;;;;;1.65;59.88;100972.28;4448981;32;31732;-86
2022/01/18 06:59:44;;;;;;;;;;;;;;;1.79;59.55;100974.56;4452835;32;34055;-86
2022/01/18 07:02:13;;;;;;;;;;;;;;;1.42;60.65;100981.50;4459164;32;34265;-86
2022/01/18 07:04:41;;;;;;;;;;;;;;;1.42;60.97;100985.75;4453207;32;31610;-86
2022/01/18 07:07:10;;;;;;;;;;;;;;;1.57;60.54;100980.44;4451357;32;32164;-86
2022/01/18 07:09:40;;;;;;;;;;;;;;;1.14;61.95;100981.97;4449258;32;34266;-86
2022/01/18 07:12:11;;;;;;;;;;;;;;;1.36;61.50;100972.69;4457694;32;33903;-86
2022/01/18 07:14:39;;;;;;;;;;;;;;;1.56;60.58;100966.78;4462798;32;34925;-86
2022/01/18 07:17:08;;;;;;;;;;;;;;;1.70;60.03;100975.06;4454414;32;33928;-86
2022/01/18 07:19:36;;;;;;;;;;;;;;;1.61;60.85;100972.97;4457534;32;35042;-86
2022/01/18 07:22:05;;;;;;;;;;;;;;;1.88;60.07;100990.31;4450394;32;34010;-86
2022/01/18 07:24:39;;;;;;;;;;;;;;;1.71;60.65;100979.34;4451134;32;31627;-86
2022/01/18 07:27:10;;;;;;;;;;;;;;;1.63;60.86;100976.47;4466772;32;33888;-86
2022/01/18 07:29:41;;;;;;;;;;;;;;;1.77;60.65;100994.09;4448858;32;34349;-86
2022/01/18 07:32:09;;;;;;;;;;;;;;;1.76;60.85;100985.53;4451059;32;31871;-86
2022/01/18 07:34:45;;;;;;;;;;;;;;;1.68;60.92;100966.44;4444912;32;31585;-86
2022/01/18 07:37:14;;;;;;;;;;;;;;;1.70;61.08;100970.81;4446227;32;34827;-86
2022/01/18 07:39:49;;;;;;;;;;;;;;;1.73;61.24;100971.75;4446981;32;35676;-85
2022/01/18 07:42:19;;;;;;;;;;;;;;;1.68;61.20;100964.75;4455924;32;34342;-86
2022/01/18 07:44:47;;;;;;;;;;;;;;;1.54;61.52;100973.50;4453648;32;33256;-86
2022/01/18 07:47:16;;;;;;;;;;;;;;;1.83;61.08;100982.44;4445103;32;34504;-85
2022/01/18 07:49:45;;;;;;;;;;;;;;;1.98;60.34;100987.34;4454733;32;34004;-86
2022/01/18 07:52:15;;;;;;;;;;;;;;;2.03;60.39;100984.97;4453670;32;33589;-86
2022/01/18 07:54:44;;;;;;;;;;;;;;;2.10;59.83;100992.97;4459022;32;33215;-86
2022/01/18 07:57:14;;;;;;;;;;;;;;;2.34;59.48;101011.06;4455565;32;33999;-86
2022/01/18 07:59:44;;;;;;;;;;;;;;;2.31;59.36;101008.34;4458140;32;34458;-87
2022/01/18 08:02:12;;;;;;;;;;;;;;;2.18;59.83;101016.34;4461119;32;34714;-86
2022/01/18 08:04:41;;;;;;;;;;;;;;;1.89;60.99;101017.66;4457992;32;33562;-86
2022/01/18 08:07:10;;;;;;;;;;;;;;;2.48;59.19;101021.84;4455746;32;34749;-87
2022/01/18 08:09:38;;;;;;;;;;;;;;;2.26;59.73;101012.41;4471810;32;33948;-86
2022/01/18 08:12:07;;;;;;;;;;;;;;;2.06;60.54;101009.00;4455814;32;34433;-86
2022/01/18 08:14:41;;;;;;;;;;;;;;;2.06;60.43;101016.69;4460434;32;32921;-86
2022/01/18 08:17:11;;;;;;;;;;;;;;;2.36;60.05;101016.22;4460407;32;34097;-86
2022/01/18 08:19:39;;;;;;;;;;;;;;;2.44;59.68;101027.66;4456120;32;34200;-86
2022/01/18 08:22:08;;;;;;;;;;;;;;;2.22;59.96;101028.44;4453943;32;34160;-86
2022/01/18 08:24:37;;;;;;;;;;;;;;;2.32;60.04;101051.09;4453830;32;32030;-86
2022/01/18 08:27:06;;;;;;;;;;;;;;;2.24;60.24;101054.13;4447632;32;35021;-86
2022/01/18 08:29:35;;;;;;;;;;;;;;;2.43;59.85;101050.66;4450622;32;34233;-86
2022/01/18 08:32:20;;;;;;;;;;;;;;;2.64;59.09;101053.22;4448645;32;31579;-86
2022/01/18 08:34:48;;;;;;;;;;;;;;;2.49;58.98;101053.44;4458022;32;34667;-87
2022/01/18 08:37:17;;;;;;;;;;;;;;;2.34;59.51;101049.47;4465024;32;33759;-86
2022/01/18 08:39:45;;;;;;;;;;;;;;;2.60;58.97;101057.34;4453755;32;35083;-86
2022/01/18 08:42:14;;;;;;;;;;;;;;;2.26;59.59;101060.19;4452925;32;33523;-86
2022/01/18 08:44:45;;;;;;;;;;;;;;;2.46;59.06;101056.75;4446793;32;33295;-86
2022/01/18 08:47:14;;;;;;;;;;;;;;;2.47;58.98;101055.97;4452109;32;34053;-86
2022/01/18 08:49:44;;;;;;;;;;;;;;;2.42;59.20;101062.59;4453424;32;35827;-87
2022/01/18 08:52:12;;;;;;;;;;;;;;;2.45;59.03;101067.81;4448728;32;34117;-86
2022/01/18 08:54:42;;;;;;;;;;;;;;;2.66;58.26;101067.84;4445557;32;32690;-86
2022/01/18 08:57:11;;;;;;;;;;;;;;;2.53;59.23;101065.56;4447246;32;34406;-87
2022/01/18 08:59:40;;;;;;;;;;;;;;;2.76;58.56;101074.22;4457125;32;35413;-86
2022/01/18 09:02:09;;;;;;;;;;;;;;;2.59;58.60;101062.41;4457458;32;33947;-86
2022/01/18 09:04:38;;;;;;;;;;;;;;;2.51;58.77;101065.53;4445378;32;32753;-86
2022/01/18 09:07:09;;;;;;;;;;;;;;;2.60;58.86;101074.41;4447118;32;34090;-86
2022/01/18 09:09:39;;;;;;;;;;;;;;;2.67;58.68;101067.03;4451508;32;33530;-86
2022/01/18 09:12:08;;;;;;;;;;;;;;;2.71;58.33;101073.16;4449791;32;34096;-86
2022/01/18 09:14:37;;;;;;;;;;;;;;;2.64;58.48;101074.59;4450465;32;33931;-86
2022/01/18 09:17:05;;;;;;;;;;;;;;;2.70;58.32;101090.19;4457707;32;32637;-86
2022/01/18 09:19:35;;;;;;;;;;;;;;;2.72;58.11;101087.72;4456761;32;34046;-88
2022/01/18 09:22:04;;;;;;;;;;;;;;;2.78;57.87;101080.28;4455701;32;34296;-86
2022/01/18 09:24:37;;;;;;;;;;;;;;;2.59;58.63;101099.16;4470962;32;33247;-86
2022/01/18 09:27:05;;;;;;;;;;;;;;;2.81;58.03;101111.16;4452909;32;34692;-87
2022/01/18 09:29:34;;;;;;;;;;;;;;;2.84;57.62;101123.22;4473482;32;34211;-87
2022/01/18 09:32:05;;;;;;;;;;;;;;;2.99;57.48;101105.88;4464189;32;34200;-88
2022/01/18 09:34:34;;;;;;;;;;;;;;;3.14;56.75;101109.09;4464621;32;33409;-88
2022/01/18 09:37:04;;;;;;;;;;;;;;;3.05;56.94;101115.53;4464740;32;34109;-89
2022/01/18 09:39:33;;;;;;;;;;;;;;;3.00;56.90;101120.47;4462423;32;34959;-89
2022/01/18 09:42:05;;;;;;;;;;;;;;;3.11;56.46;101126.88;4469913;32;34706;-89
2022/01/18 09:44:34;;;;;;;;;;;;;;;3.26;56.08;101103.53;4465031;32;34638;-88
2022/01/18 09:47:03;;;;;;;;;;;;;;;3.15;55.67;101122.78;4463210;32;32422;-89
2022/01/18 09:49:35;;;;;;;;;;;;;;;3.08;55.55;101119.09;4463151;32;35196;-88
2022/01/18 09:52:06;;;;;;;;;;;;;;;3.12;56.33;101120.97;4464636;32;34407;-89
2022/01/18 09:54:40;;;;;;;;;;;;;;;3.24;55.95;101123.16;4463031;32;34308;-88
2022/01/18 09:57:13;;;;;;;;;;;;;;;3.28;55.29;101109.59;4468126;32;35445;-89
2022/01/18 09:59:41;;;;;;;;;;;;;;;3.13;55.28;101122.69;4464450;32;34827;-89
2022/01/18 10:02:10;;;;;;;;;;;;;;;3.27;55.11;101132.66;4459792;32;34026;-90
2022/01/18 10:04:40;;;;;;;;;;;;;;;3.11;55.74;101134.56;4453718;32;33442;-88
2022/01/18 10:07:08;;;;;;;;;;;;;;;3.13;55.25;101130.41;4457465;32;33818;-89
2022/01/18 10:09:37;;;;;;;;;;;;;;;3.19;54.86;101122.09;4463776;32;33948;-89
2022/01/18 10:12:07;;;;;;;;;;;;;;;3.45;54.95;101124.78;4450972;32;31354;-88
2022/01/18 10:14:38;;;;;;;;;;;;;;;3.43;55.18;101122.16;4448260;32;34293;-90
2022/01/18 10:17:07;;;;;;;;;;;;;;;3.35;55.03;101134.69;4449446;32;34005;-89
2022/01/18 10:19:41;;;;;;;;;;;;;;;3.24;55.23;101148.78;4448769;32;34968;-89
2022/01/18 10:22:10;;;;;;;;;;;;;;;3.36;54.95;101146.72;4448560;32;34481;-89
2022/01/18 10:24:41;;;;;;;;;;;;;;;3.28;55.15;101132.69;4463433;32;33261;-90
2022/01/18 10:27:11;;;;;;;;;;;;;;;3.42;54.72;101146.94;4461005;32;33931;-90
2022/01/18 10:29:41;;;;;;;;;;;;;;;3.44;54.94;101147.00;4462686;32;34016;-89
2022/01/18 10:32:14;;;;;;;;;;;;;;;3.53;54.68;101155.06;4461776;32;33985;-86
2022/01/18 10:37:28;;;;;;;;;;;;;;;3.67;54.46;101126.47;4454132;32;34879;-87
2022/01/18 10:39:57;;;;;;;;;;;;;;;3.75;54.42;101125.09;4460667;32;32684;-87
2022/01/18 10:42:29;;;;;;;;;;;;;;;3.93;53.70;101119.75;4459635;32;34540;-87
2022/01/18 10:45:00;;;;;;;;;;;;;;;3.86;52.97;101113.50;4464232;32;33828;-86
2022/01/18 10:47:28;;;;;;;;;;;;;;;4.03;52.69;101116.69;4457073;32;33688;-86
2022/01/18 10:49:57;;;;;;;;;;;;;;;3.78;52.63;101125.19;4448276;32;34554;-86
2022/01/18 10:52:28;;;;;;;;;;;;;;;3.69;53.45;101119.72;4453887;32;33722;-87
2022/01/18 10:54:57;;;;;;;;;;;;;;;3.64;53.42;101116.97;4448508;32;33883;-87
2022/01/18 10:57:26;;;;;;;;;;;;;;;3.70;53.06;101118.91;4451480;32;34146;-86
2022/01/18 10:59:58;;;;;;;;;;;;;;;3.41;53.58;101122.09;4463637;32;33620;-86
2022/01/18 11:02:28;;;;;;;;;;;;;;;3.57;53.47;101105.59;4460089;32;33816;-87
2022/01/18 11:04:58;;;;;;;;;;;;;;;3.79;53.29;101108.97;4453743;32;34145;-86
2022/01/18 11:07:27;;;;;;;;;;;;;;;3.84;52.39;101110.91;4454420;32;33447;-87
2022/01/18 11:09:56;;;;;;;;;;;;;;;3.76;52.37;101116.56;4446949;32;33142;-86
2022/01/18 11:12:27;;;;;;;;;;;;;;;3.69;52.29;101141.09;4454575;32;33212;-86
2022/01/18 11:15:07;;;;;;;;;;;;;;;3.94;52.34;101131.75;4461588;32;32965;-86
2022/01/18 11:17:40;;;;;;;;;;;;;;;4.17;51.70;101142.88;4451094;32;34660;-86
2022/01/18 11:20:09;;;;;;;;;;;;;;;3.98;51.80;101134.50;4458391;32;35217;-86
2022/01/18 11:22:38;;;;;;;;;;;;;;;3.97;52.05;101130.19;4457240;32;34842;-86
2022/01/18 11:25:06;;;;;;;;;;;;;;;4.03;51.93;101139.81;4472225;32;34048;-87
2022/01/18 11:27:36;;;;;;;;;;;;;;;4.05;51.51;101135.59;4458413;32;34181;-87
2022/01/18 11:30:06;;;;;;;;;;;;;;;4.09;51.48;101136.59;4449242;32;33452;-87
2022/01/18 11:32:34;;;;;;;;;;;;;;;4.10;51.22;101121.22;4460066;32;32372;-86
2022/01/18 11:35:08;;;;;;;;;;;;;;;3.75;51.98;101130.22;4454559;32;33226;-87
2022/01/18 11:37:41;;;;;;;;;;;;;;;3.81;51.96;101139.00;4451470;32;35099;-86
2022/01/18 11:40:11;;;;;;;;;;;;;;;3.73;52.01;101145.56;4463741;32;31950;-86
2022/01/18 11:42:49;;;;;;;;;;;;;;;3.55;52.57;101161.12;4450783;32;33663;-86
2022/01/18 11:45:28;;;;;;;;;;;;;;;4.03;51.68;101142.37;4448363;32;33242;-86
2022/01/18 11:48:01;;;;;;;;;;;;;;;4.11;51.85;101156.38;4456389;32;32345;-86
2022/01/18 11:50:32;;;;;;;;;;;;;;;4.17;51.36;101166.00;4453796;32;34933;-86
2022/01/18 11:53:37;;;;;;;;;;;;;;;4.09;51.74;101154.56;4447842;32;33708;-86
2022/01/18 11:56:07;;;;;;;;;;;;;;;4.20;51.43;101151.56;4411132;32;33395;-86
2022/01/18 11:58:35;;;;;;;;;;;;;;;4.16;51.43;101153.97;4409311;32;33949;-86
2022/01/18 12:01:04;;;;;;;;;;;;;;;4.36;51.01;101136.72;4405854;32;34139;-87
2022/01/18 12:03:33;;;;;;;;;;;;;;;4.21;51.18;101132.78;4392417;32;33836;-86
2022/01/18 12:06:04;;;;;;;;;;;;;;;4.16;51.33;101139.44;4409660;32;33734;-86
2022/01/18 12:08:33;;;;;;;;;;;;;;;4.21;51.08;101131.91;4395398;32;35187;-86
2022/01/18 12:11:03;;;;;;;;;;;;;;;4.44;50.66;101130.12;4395189;32;34202;-86
2022/01/18 12:13:42;;;;;;;;;;;;;;;4.30;50.51;101131.34;4394725;32;34697;-86
2022/01/18 12:16:27;;;;;;;;;;;;;;;4.33;50.20;101145.19;4391114;32;33276;-87
2022/01/18 12:18:59;;;;;;;;;;;;;;;4.32;50.20;101140.84;4397885;32;35570;-87
2022/01/18 12:21:30;;;;;;;;;;;;;;;4.36;50.35;101144.41;4413531;32;34592;-87
2022/01/18 12:23:59;;;;;;;;;;;;;;;4.51;50.45;101138.94;4405896;32;33400;-87
2022/01/18 12:26:32;;;;;;;;;;;;;;;4.33;50.54;101118.63;4401517;32;33978;-87
2022/01/18 12:34:50;;;;;;;;;;;;;;;4.04;51.17;101168.13;4445314;32;33519;-88
2022/01/18 12:37:36;;;;;;;;;;;;;;;4.04;51.34;101156.97;4450127;32;31339;-87
2022/01/18 12:40:08;;;;;;;;;;;;;;;3.92;51.77;101174.50;4449390;32;33873;-87
2022/01/18 12:45:24;;;;;;;;;;;;;;;4.18;51.48;101173.78;4451397;32;33896;-88
2022/01/18 12:47:55;;;;;;;;;;;;;;;4.11;51.35;101189.78;4451675;32;34016;-87
2022/01/18 12:50:24;;;;;;;;;;;;;;;3.88;52.08;101178.63;4454434;32;32522;-88
2022/01/18 12:53:17;;;;;;;;;;;;;;;4.04;51.85;101180.94;4451677;32;36044;-88
2022/01/18 12:55:46;;;;;;;;;;;;;;;3.90;52.43;101164.16;4457456;32;34839;-88
2022/01/18 12:58:15;;;;;;;;;;;;;;;4.10;51.75;101184.56;4467988;32;30727;-87
2022/01/18 13:00:45;;;;;;;;;;;;;;;4.18;51.83;101163.50;4450229;32;34150;-87
2022/01/18 13:03:17;;;;;;;;;;;;;;;4.24;51.46;101170.53;4457079;32;34635;-88
2022/01/18 13:05:47;;;;;;;;;;;;;;;4.16;51.76;101157.41;4449470;32;33619;-88
2022/01/18 13:08:19;;;;;;;;;;;;;;;4.01;52.35;101164.53;4453191;32;33828;-87
2022/01/18 13:10:49;;;;;;;;;;;;;;;4.04;52.05;101160.41;4450901;32;34946;-88
2022/01/18 13:13:21;;;;;;;;;;;;;;;3.91;52.71;101173.59;4457758;32;34677;-89
2022/01/18 13:16:04;;;;;;;;;;;;;;;4.33;51.57;101162.31;4458519;32;34703;-88
2022/01/18 13:27:11;;;;;;;;;;;;;;;4.52;51.04;101159.56;4435237;32;34605;-87
2022/01/18 13:29:39;;;;;;;;;;;;;;;4.07;51.97;101170.78;4457406;32;34081;-87
2022/01/18 13:32:12;;;;;;;;;;;;;;;4.12;52.37;101168.38;4463613;32;33874;-88
2022/01/18 13:34:41;;;;;;;;;;;;;;;3.97;52.61;101178.09;4460474;32;34380;-88
2022/01/18 13:37:12;;;;;;;;;;;;;;;3.98;52.90;101178.16;4448073;32;33110;-87
2022/01/18 13:39:48;;;;;;;;;;;;;;;4.17;52.47;101163.41;4449639;32;33472;-87
2022/01/18 13:42:18;;;;;;;;;;;;;;;4.01;52.81;101157.75;4456942;32;32756;-87
2022/01/18 13:45:05;;;;;;;;;;;;;;;4.22;52.53;101159.31;4462114;32;34216;-88
2022/01/18 13:47:37;;;;;;;;;;;;;;;4.35;52.44;101161.53;4458503;32;34290;-87
2022/01/18 13:50:06;;;;;;;;;;;;;;;4.26;52.83;101168.91;4462350;32;32822;-87
2022/01/18 13:52:34;;;;;;;;;;;;;;;4.24;52.77;101157.69;4460956;32;33833;-87
2022/01/18 13:55:04;;;;;;;;;;;;;;;4.22;52.82;101155.06;4463400;32;34167;-88
2022/01/18 13:57:33;;;;;;;;;;;;;;;4.09;53.13;101145.16;4464324;32;33845;-87
2022/01/18 14:00:09;;;;;;;;;;;;;;;3.88;53.72;101172.63;4458214;32;33238;-87
2022/01/18 14:02:42;;;;;;;;;;;;;;;4.01;53.59;101185.09;4456645;32;34791;-87
2022/01/18 14:05:11;;;;;;;;;;;;;;;4.02;53.76;101192.00;4456059;32;35505;-88
2022/01/18 14:07:39;;;;;;;;;;;;;;;4.23;53.18;101197.06;4450336;32;34100;-87
2022/01/18 14:10:09;;;;;;;;;;;;;;;4.37;53.05;101198.41;4454490;32;33226;-87
2022/01/18 14:12:38;;;;;;;;;;;;;;;4.45;52.55;101201.28;4451551;32;33573;-87
2022/01/18 14:15:07;;;;;;;;;;;;;;;4.31;52.99;101192.19;4455490;32;34342;-87
2022/01/18 14:17:36;;;;;;;;;;;;;;;4.46;52.66;101192.72;4456102;32;34674;-87